Time;durP1;ratioP1;P1;durP2;ratioP2;P2;SDS_P1;SDS_P2;PMS_P1;PMS_P2;Temp;Humidity;BMP_temperature;BMP_pressure;BME280_temperature;BME280_humidity;BME280_pressure;Samples;Min_cycle;Max_cycle;Signal;HPM_P1;HPM_P2
2022/08/21 00:01:21;;;;;;;2.47;2.00;;;18.20;99.90;;;;;;5047060;28;20451;-70
2022/08/21 00:03:50;;;;;;;3.27;2.33;;;18.20;99.90;;;;;;5050680;28;20651;-70
2022/08/21 00:06:17;;;;;;;5.23;2.10;;;18.20;99.90;;;;;;5045293;28;20464;-70
2022/08/21 00:08:44;;;;;;;4.13;2.50;;;18.20;99.90;;;;;;5050115;28;20484;-70
2022/08/21 00:11:11;;;;;;;4.50;2.50;;;18.20;99.90;;;;;;5045472;28;20455;-70
2022/08/21 00:13:39;;;;;;;3.23;2.30;;;18.20;99.90;;;;;;5036219;28;20464;-70
2022/08/21 00:16:07;;;;;;;2.70;2.50;;;18.10;99.90;;;;;;5048831;28;20537;-70
2022/08/21 00:18:34;;;;;;;3.40;2.30;;;18.10;99.90;;;;;;5048142;28;20874;-70
2022/08/21 00:21:03;;;;;;;3.20;2.40;;;18.10;99.90;;;;;;5049396;28;20533;-70
2022/08/21 00:23:30;;;;;;;3.10;2.50;;;17.90;99.90;;;;;;5051049;28;20493;-70
2022/08/21 00:25:58;;;;;;;2.83;2.57;;;18.00;99.90;;;;;;5049131;28;20818;-70
2022/08/21 00:28:25;;;;;;;2.60;2.40;;;18.00;99.90;;;;;;5049428;28;20807;-70
2022/08/21 00:30:52;;;;;;;3.03;2.50;;;17.90;99.90;;;;;;5048840;28;20483;-70
2022/08/21 00:33:19;;;;;;;4.77;2.60;;;17.80;99.90;;;;;;5052081;28;21021;-71
2022/08/21 00:35:46;;;;;;;2.83;2.53;;;17.80;99.90;;;;;;5047743;28;20514;-70
2022/08/21 00:38:14;;;;;;;2.90;2.50;;;17.80;99.90;;;;;;5051617;28;20451;-70
2022/08/21 00:40:46;;;;;;;3.00;2.27;;;17.80;99.90;;;;;;5047853;28;20462;-70
2022/08/21 00:43:16;;;;;;;3.63;2.43;;;17.80;99.90;;;;;;5034562;28;20521;-70
2022/08/21 00:45:43;;;;;;;3.20;2.40;;;17.70;99.90;;;;;;5049365;28;20888;-70
2022/08/21 00:48:11;;;;;;;3.13;2.67;;;17.70;99.90;;;;;;5050454;28;20579;-71
2022/08/21 00:50:44;;;;;;;3.07;2.50;;;17.60;99.90;;;;;;5049735;28;20546;-71
2022/08/21 00:53:14;;;;;;;2.83;2.40;;;17.60;99.90;;;;;;5051324;28;20503;-71
2022/08/21 00:55:42;;;;;;;3.37;2.63;;;17.50;99.90;;;;;;5051370;28;20454;-70
2022/08/21 00:58:12;;;;;;;5.10;2.50;;;17.50;99.90;;;;;;5051008;28;20538;-70
2022/08/21 01:00:41;;;;;;;3.53;2.70;;;17.50;99.90;;;;;;5047723;28;20712;-70
2022/08/21 01:03:12;;;;;;;3.00;2.50;;;17.50;99.90;;;;;;5048862;28;20479;-70
2022/08/21 01:05:40;;;;;;;6.13;2.73;;;17.50;99.90;;;;;;5039661;28;20592;-70
2022/08/21 01:08:08;;;;;;;3.20;2.17;;;17.50;99.90;;;;;;5044969;28;20505;-70
2022/08/21 01:10:38;;;;;;;3.47;2.57;;;17.50;99.90;;;;;;5045495;28;20451;-70
2022/08/21 01:13:07;;;;;;;3.10;2.50;;;17.50;99.90;;;;;;5037767;28;20511;-70
2022/08/21 01:15:39;;;;;;;3.10;2.20;;;17.50;99.90;;;;;;5045795;28;20457;-70
2022/08/21 01:18:08;;;;;;;2.80;2.50;;;17.50;99.90;;;;;;5050012;28;20463;-70
2022/08/21 01:20:36;;;;;;;3.40;2.50;;;17.50;99.90;;;;;;5046695;28;20560;-70
2022/08/21 01:23:05;;;;;;;4.10;2.63;;;17.50;99.90;;;;;;5050600;28;20857;-71
2022/08/21 01:25:33;;;;;;;3.77;2.67;;;17.50;99.90;;;;;;5048245;28;20550;-70
2022/08/21 01:28:08;;;;;;;3.40;2.77;;;17.50;99.90;;;;;;5039309;28;20776;-70
2022/08/21 01:30:37;;;;;;;3.33;3.00;;;17.50;99.90;;;;;;5046799;28;20451;-70
2022/08/21 01:33:04;;;;;;;3.23;2.67;;;17.50;99.90;;;;;;5050120;28;20985;-70
2022/08/21 01:35:32;;;;;;;3.77;2.80;;;17.50;99.90;;;;;;5046489;28;20501;-70
2022/08/21 01:37:59;;;;;;;2.90;2.60;;;17.50;99.90;;;;;;5046779;28;20467;-70
2022/08/21 01:40:27;;;;;;;4.20;2.37;;;17.50;99.90;;;;;;5039700;28;20513;-70
2022/08/21 01:42:54;;;;;;;4.50;2.90;;;17.50;99.90;;;;;;5041248;28;20475;-70
2022/08/21 01:45:22;;;;;;;2.73;2.53;;;17.50;99.90;;;;;;5044173;28;20487;-70
2022/08/21 01:47:49;;;;;;;3.20;2.80;;;17.50;99.90;;;;;;5035517;28;21011;-71
2022/08/21 01:50:19;;;;;;;3.97;2.83;;;17.50;99.90;;;;;;5050586;28;20470;-70
2022/08/21 01:52:46;;;;;;;4.13;3.13;;;17.40;99.90;;;;;;5037207;28;20554;-71
2022/08/21 01:55:18;;;;;;;4.10;3.07;;;17.40;99.90;;;;;;5046970;28;20969;-70
2022/08/21 01:57:47;;;;;;;3.43;2.90;;;17.30;99.90;;;;;;5046985;28;20455;-70
2022/08/21 02:00:16;;;;;;;5.37;3.17;;;17.30;99.90;;;;;;5044215;28;20538;-70
2022/08/21 02:02:44;;;;;;;3.50;3.03;;;17.10;99.90;;;;;;5049547;28;20558;-70
2022/08/21 02:05:12;;;;;;;4.03;2.97;;;17.10;99.90;;;;;;5044062;28;21023;-70
2022/08/21 02:07:41;;;;;;;3.37;3.07;;;17.10;99.90;;;;;;5039204;28;20455;-70
2022/08/21 02:10:10;;;;;;;3.50;3.20;;;17.00;99.90;;;;;;5035660;28;20506;-70
2022/08/21 02:12:37;;;;;;;3.53;3.23;;;17.00;99.90;;;;;;5048638;28;20553;-71
2022/08/21 02:15:08;;;;;;;3.80;3.33;;;17.00;99.90;;;;;;5046866;28;20459;-70
2022/08/21 02:17:40;;;;;;;3.77;3.37;;;17.00;99.90;;;;;;5045548;28;20455;-71
2022/08/21 02:20:09;;;;;;;3.60;3.30;;;16.90;99.90;;;;;;5050214;28;20461;-70
2022/08/21 02:22:36;;;;;;;4.10;3.43;;;16.80;99.90;;;;;;5049108;28;20462;-70
2022/08/21 02:25:03;;;;;;;4.27;3.60;;;16.70;99.90;;;;;;5046666;28;20977;-70
2022/08/21 02:27:37;;;;;;;4.07;3.67;;;16.60;99.90;;;;;;5048554;28;20462;-70
2022/08/21 02:30:07;;;;;;;4.33;3.93;;;16.60;99.90;;;;;;5048902;28;20455;-70
2022/08/21 02:32:35;;;;;;;4.30;3.47;;;16.50;99.90;;;;;;5040573;28;20579;-70
2022/08/21 02:35:03;;;;;;;5.60;3.80;;;16.40;99.90;;;;;;5051346;28;20821;-70
2022/08/21 02:37:30;;;;;;;4.67;4.07;;;16.30;99.90;;;;;;5043460;28;20465;-70
2022/08/21 02:39:59;;;;;;;4.83;4.33;;;16.20;99.90;;;;;;5048783;28;20454;-70
2022/08/21 02:42:26;;;;;;;4.13;3.73;;;16.10;99.90;;;;;;5049740;28;20525;-70
2022/08/21 02:44:53;;;;;;;5.23;4.10;;;16.00;99.90;;;;;;5049865;28;20520;-70
2022/08/21 02:47:22;;;;;;;4.63;4.00;;;15.90;99.90;;;;;;5054897;28;20462;-70
2022/08/21 02:49:49;;;;;;;4.77;3.90;;;15.90;99.90;;;;;;5052138;28;20479;-70
2022/08/21 02:52:16;;;;;;;4.73;4.33;;;15.80;99.90;;;;;;5037933;28;20478;-70
2022/08/21 02:54:43;;;;;;;4.97;4.50;;;15.80;99.90;;;;;;5051970;28;20486;-70
2022/08/21 02:57:10;;;;;;;3.83;3.53;;;15.70;99.90;;;;;;5041221;28;20537;-70
2022/08/21 02:59:38;;;;;;;4.63;4.10;;;15.70;99.90;;;;;;5047813;28;21004;-70
2022/08/21 03:02:05;;;;;;;5.60;4.43;;;15.70;99.90;;;;;;5051407;28;20600;-70
2022/08/21 03:04:33;;;;;;;4.83;4.50;;;15.70;99.90;;;;;;5054283;28;20490;-69
2022/08/21 03:07:01;;;;;;;5.60;5.10;;;15.60;99.90;;;;;;5039297;28;20525;-70
2022/08/21 03:09:28;;;;;;;5.37;4.90;;;15.50;99.90;;;;;;5049767;28;20461;-70
2022/08/21 03:11:55;;;;;;;4.97;4.57;;;15.40;99.90;;;;;;5051638;28;20497;-70
2022/08/21 03:14:22;;;;;;;4.93;4.23;;;15.30;99.90;;;;;;5055345;28;20759;-70
2022/08/21 03:16:49;;;;;;;5.33;4.83;;;15.30;99.90;;;;;;5046326;28;21036;-70
2022/08/21 03:19:16;;;;;;;5.30;4.90;;;15.30;99.90;;;;;;5046644;28;20522;-70
2022/08/21 03:21:44;;;;;;;5.90;4.97;;;15.30;99.90;;;;;;5043117;28;20483;-70
2022/08/21 03:24:12;;;;;;;5.40;4.90;;;15.30;99.90;;;;;;5037720;28;20509;-70
2022/08/21 03:26:39;;;;;;;6.00;5.17;;;15.30;99.90;;;;;;5046505;28;20824;-70
2022/08/21 03:29:07;;;;;;;5.43;4.93;;;15.20;99.90;;;;;;5050900;28;20486;-70
2022/08/21 03:31:34;;;;;;;5.77;5.17;;;15.10;99.90;;;;;;5050712;28;20852;-70
2022/08/21 03:34:01;;;;;;;5.23;4.83;;;15.10;99.90;;;;;;5049050;28;20469;-70
2022/08/21 03:36:29;;;;;;;5.47;4.97;;;15.10;99.90;;;;;;5050467;28;20461;-70
2022/08/21 03:38:58;;;;;;;6.17;5.27;;;15.00;99.90;;;;;;5050744;28;21029;-70
2022/08/21 03:41:25;;;;;;;5.90;5.33;;;15.00;99.90;;;;;;5053063;28;20839;-70
2022/08/21 03:43:52;;;;;;;6.33;5.73;;;14.90;99.90;;;;;;5051410;28;20492;-70
2022/08/21 03:46:19;;;;;;;6.60;5.87;;;14.90;99.90;;;;;;5043253;28;20830;-70
2022/08/21 03:48:46;;;;;;;6.30;5.77;;;14.90;99.90;;;;;;5050198;28;20524;-70
2022/08/21 03:51:13;;;;;;;6.23;5.73;;;14.80;99.90;;;;;;5051308;28;20565;-70
2022/08/21 03:53:40;;;;;;;6.87;6.27;;;14.80;99.90;;;;;;5050000;28;20452;-70
2022/08/21 03:56:09;;;;;;;6.53;6.03;;;14.80;99.90;;;;;;5050402;28;20530;-70
2022/08/21 03:58:36;;;;;;;6.93;6.23;;;14.70;99.90;;;;;;5052679;28;20456;-70
2022/08/21 04:01:06;;;;;;;6.40;5.90;;;14.70;99.90;;;;;;5051218;28;20457;-70
2022/08/21 04:03:35;;;;;;;8.00;6.73;;;14.60;99.90;;;;;;5049627;28;20456;-70
2022/08/21 04:06:02;;;;;;;7.67;7.00;;;14.60;99.90;;;;;;5044965;28;20985;-70
2022/08/21 04:08:29;;;;;;;8.13;6.10;;;14.60;99.90;;;;;;5050593;28;20490;-70
2022/08/21 04:10:58;;;;;;;6.65;6.15;;;14.50;99.90;;;;;;5045664;28;20197;-70
2022/08/21 04:13:28;;;;;;;6.33;5.73;;;14.50;99.90;;;;;;5047535;28;20199;-70
2022/08/21 04:15:57;;;;;;;6.83;6.23;;;14.40;99.90;;;;;;5046507;28;20530;-70
2022/08/21 04:18:24;;;;;;;6.27;5.77;;;14.40;99.90;;;;;;5052270;28;20991;-70
2022/08/21 04:20:54;;;;;;;7.03;6.40;;;14.40;99.90;;;;;;5039787;28;20464;-70
2022/08/21 04:23:22;;;;;;;6.40;5.90;;;14.40;99.90;;;;;;5039994;28;20620;-70
2022/08/21 04:25:49;;;;;;;9.60;7.20;;;14.30;99.90;;;;;;5049728;28;20881;-70
2022/08/21 04:28:17;;;;;;;7.18;6.20;;;14.30;99.90;;;;;;5050485;28;20202;-70
2022/08/21 04:30:45;;;;;;;6.93;5.85;;;14.30;99.90;;;;;;5046559;28;20217;-70
2022/08/21 04:33:13;;;;;;;7.17;6.47;;;14.30;99.90;;;;;;5041501;28;20291;-70
2022/08/21 04:35:41;;;;;;;6.60;6.00;;;14.40;99.90;;;;;;5046612;28;20554;-70
2022/08/21 04:38:08;;;;;;;5.87;5.37;;;14.40;99.90;;;;;;5049248;28;20469;-70
2022/08/21 04:40:36;;;;;;;6.13;5.53;;;14.40;99.90;;;;;;5043334;28;20994;-70
2022/08/21 04:43:09;;;;;;;5.50;5.10;;;14.50;99.90;;;;;;5049460;28;20458;-70
2022/08/21 04:45:39;;;;;;;6.50;5.90;;;14.50;99.90;;;;;;5044462;28;20486;-70
2022/08/21 04:48:10;;;;;;;5.80;5.30;;;14.50;99.90;;;;;;5042088;28;20825;-70
2022/08/21 04:50:40;;;;;;;6.10;5.50;;;14.50;99.90;;;;;;5039606;28;20488;-70
2022/08/21 04:53:12;;;;;;;6.37;5.37;;;14.50;99.90;;;;;;5036573;28;21019;-70
2022/08/21 04:55:40;;;;;;;6.28;5.68;;;14.60;99.90;;;;;;5041564;28;20488;-70
2022/08/21 04:58:08;;;;;;;5.55;4.97;;;14.60;99.90;;;;;;5043833;28;20197;-70
2022/08/21 05:00:36;;;;;;;6.60;5.03;;;14.60;99.90;;;;;;5039856;28;20218;-70
2022/08/21 05:03:05;;;;;;;6.85;5.10;;;14.60;99.90;;;;;;5040613;28;20548;-70
2022/08/21 05:05:34;;;;;;;5.47;5.03;;;14.60;99.90;;;;;;5038337;28;20221;-70
2022/08/21 05:08:03;;;;;;;6.83;5.43;;;14.70;99.90;;;;;;5045698;28;20461;-70
2022/08/21 05:10:32;;;;;;;5.63;5.20;;;14.70;99.90;;;;;;5042412;28;20550;-70
2022/08/21 05:13:00;;;;;;;4.70;4.40;;;14.80;99.90;;;;;;5044464;28;20958;-67
2022/08/21 05:15:29;;;;;;;6.57;5.97;;;14.80;99.90;;;;;;5040925;28;20457;-68
2022/08/21 05:17:57;;;;;;;5.70;4.77;;;14.80;99.90;;;;;;5048389;28;20452;-68
2022/08/21 05:20:24;;;;;;;5.97;5.40;;;14.90;99.90;;;;;;5041309;28;20468;-67
2022/08/21 05:22:53;;;;;;;6.30;5.03;;;14.90;99.90;;;;;;5046044;28;20907;-68
2022/08/21 05:25:20;;;;;;;5.53;5.13;;;15.00;99.90;;;;;;5039755;28;20493;-68
2022/08/21 05:27:47;;;;;;;5.80;5.30;;;15.00;99.90;;;;;;5045855;28;21243;-68
2022/08/21 05:30:14;;;;;;;5.23;4.83;;;15.10;99.90;;;;;;5038647;28;20860;-67
2022/08/21 05:32:42;;;;;;;5.30;4.90;;;15.10;99.90;;;;;;5041932;28;20482;-67
2022/08/21 05:35:09;;;;;;;5.23;4.83;;;15.10;99.90;;;;;;5042207;28;20481;-68
2022/08/21 05:37:37;;;;;;;5.53;5.13;;;15.20;99.90;;;;;;5043007;28;20529;-68
2022/08/21 05:40:07;;;;;;;6.57;5.50;;;15.20;99.90;;;;;;5040459;28;20463;-67
2022/08/21 05:42:34;;;;;;;5.40;5.00;;;15.20;99.90;;;;;;5037760;28;20468;-68
2022/08/21 05:45:02;;;;;;;5.10;4.60;;;15.30;99.90;;;;;;5038897;28;20506;-68
2022/08/21 05:47:29;;;;;;;5.83;5.30;;;15.30;99.90;;;;;;5046431;28;20497;-67
2022/08/21 05:49:56;;;;;;;6.17;5.57;;;15.40;99.90;;;;;;5045068;28;20511;-68
2022/08/21 05:52:23;;;;;;;5.73;5.30;;;15.40;99.90;;;;;;5044295;28;20479;-67
2022/08/21 05:54:53;;;;;;;5.77;5.20;;;15.50;99.90;;;;;;5047952;28;20462;-69
2022/08/21 05:57:22;;;;;;;6.50;5.80;;;15.50;99.90;;;;;;5040947;28;20947;-68
2022/08/21 05:59:50;;;;;;;5.23;4.90;;;15.60;99.90;;;;;;5041613;28;21273;-68
2022/08/21 06:02:18;;;;;;;5.83;5.07;;;15.70;99.90;;;;;;5044024;28;20571;-67
2022/08/21 06:04:45;;;;;;;6.13;5.70;;;15.70;99.90;;;;;;5041337;28;20467;-68
2022/08/21 06:07:13;;;;;;;5.20;4.63;;;15.80;99.90;;;;;;5046646;28;22276;-67
2022/08/21 06:09:40;;;;;;;5.83;5.33;;;15.90;99.90;;;;;;5032816;28;20537;-67
2022/08/21 06:12:09;;;;;;;5.80;5.30;;;16.00;99.90;;;;;;5047300;28;20482;-67
2022/08/21 06:14:39;;;;;;;4.97;4.53;;;16.10;99.90;;;;;;5049740;28;20460;-67
2022/08/21 06:17:10;;;;;;;6.13;4.93;;;16.20;99.90;;;;;;5047408;28;20455;-68
2022/08/21 06:19:38;;;;;;;4.97;4.60;;;16.20;99.90;;;;;;5050862;28;20530;-67
2022/08/21 06:22:05;;;;;;;5.80;5.30;;;16.30;99.90;;;;;;5044304;28;20997;-67
2022/08/21 06:24:33;;;;;;;6.40;5.80;;;16.30;99.90;;;;;;5046618;28;20471;-67
2022/08/21 06:27:06;;;;;;;5.13;4.63;;;16.40;99.90;;;;;;5040252;28;20463;-67
2022/08/21 06:29:33;;;;;;;6.93;4.97;;;16.50;99.90;;;;;;5045343;28;20568;-68
2022/08/21 06:32:02;;;;;;;5.90;5.50;;;16.60;99.90;;;;;;5045770;28;20538;-67
2022/08/21 06:34:29;;;;;;;5.57;5.07;;;16.70;99.90;;;;;;5044014;28;20532;-67
2022/08/21 06:36:56;;;;;;;7.20;5.60;;;16.80;99.90;;;;;;5045929;28;20458;-64
2022/08/21 06:39:23;;;;;;;5.30;4.80;;;16.90;99.90;;;;;;5037212;28;20498;-65
2022/08/21 06:41:50;;;;;;;5.47;5.13;;;17.10;99.90;;;;;;5046915;28;20487;-66
2022/08/21 06:44:18;;;;;;;6.30;5.00;;;17.30;99.90;;;;;;5046276;28;20536;-67
2022/08/21 06:46:45;;;;;;;5.20;4.80;;;17.50;99.90;;;;;;5040406;28;20509;-67
2022/08/21 06:49:13;;;;;;;4.70;4.30;;;17.70;99.90;;;;;;5041797;28;20578;-68
2022/08/21 06:51:41;;;;;;;5.10;4.30;;;18.00;99.90;;;;;;5043866;28;20813;-67
2022/08/21 06:54:08;;;;;;;4.93;4.50;;;18.20;99.90;;;;;;5047860;28;20805;-67
2022/08/21 06:56:37;;;;;;;5.40;4.43;;;18.50;99.90;;;;;;5046128;28;20456;-67
2022/08/21 06:59:05;;;;;;;4.30;3.90;;;18.90;99.90;;;;;;5045079;28;20528;-67
2022/08/21 07:01:33;;;;;;;5.20;4.53;;;19.20;99.90;;;;;;5046203;28;20546;-67
2022/08/21 07:04:00;;;;;;;3.77;3.57;;;19.60;99.90;;;;;;5046584;28;20465;-67
2022/08/21 07:06:28;;;;;;;4.13;3.73;;;19.90;99.90;;;;;;5046639;28;20538;-66
2022/08/21 15:29:23;;;;;;;2.93;2.63;;;34.80;45.90;;;;;;6120052;23;20588;-67
2022/08/21 15:31:54;;;;;;;3.43;2.70;;;35.00;45.40;;;;;;6113098;23;20437;-68
2022/08/21 15:34:21;;;;;;;3.23;2.87;;;35.50;44.50;;;;;;6115036;23;20990;-69
2022/08/21 15:36:48;;;;;;;3.30;2.30;;;35.90;44.60;;;;;;6109419;23;20455;-69
2022/08/21 15:39:16;;;;;;;2.83;2.63;;;36.00;43.60;;;;;;6105248;23;20489;-71
2022/08/21 15:41:43;;;;;;;2.90;2.40;;;36.10;43.60;;;;;;6100738;23;20491;-69
2022/08/21 15:44:12;;;;;;;3.40;2.77;;;35.60;42.80;;;;;;6099680;23;20506;-69
2022/08/21 15:46:41;;;;;;;2.57;2.37;;;35.00;43.70;;;;;;6107948;23;20528;-73
2022/08/21 15:49:08;;;;;;;3.03;2.73;;;34.60;44.50;;;;;;6107697;23;20465;-69
2022/08/21 15:51:35;;;;;;;3.70;3.20;;;34.60;45.00;;;;;;6110767;23;20450;-69
2022/08/21 15:54:03;;;;;;;2.93;2.70;;;34.90;44.10;;;;;;6107243;23;20833;-70
2022/08/21 15:56:36;;;;;;;2.63;2.43;;;34.80;44.80;;;;;;6109468;23;20483;-69
2022/08/21 15:59:08;;;;;;;2.80;2.50;;;34.70;44.40;;;;;;6111083;23;20471;-69
2022/08/21 16:01:37;;;;;;;3.00;2.40;;;34.40;44.80;;;;;;6105900;23;20442;-69
2022/08/21 16:04:06;;;;;;;3.10;2.63;;;34.40;44.70;;;;;;6106195;23;20438;-69
2022/08/21 16:06:33;;;;;;;3.20;2.90;;;34.80;44.50;;;;;;6113021;23;20440;-69
2022/08/21 16:09:01;;;;;;;2.97;2.50;;;35.20;44.30;;;;;;6115931;23;20464;-68
2022/08/21 16:11:28;;;;;;;3.07;2.77;;;35.60;43.70;;;;;;6109302;23;20468;-68
2022/08/21 16:13:56;;;;;;;3.80;2.80;;;35.90;42.40;;;;;;6094695;23;20452;-78
2022/08/21 16:16:24;;;;;;;4.47;2.70;;;35.80;42.10;;;;;;6109461;23;20459;-78
2022/08/21 16:18:53;;;;;;;3.10;2.63;;;35.80;42.50;;;;;;6112199;23;20519;-77
2022/08/21 16:21:21;;;;;;;2.77;2.57;;;36.20;42.40;;;;;;6121307;23;20785;-78
2022/08/21 16:23:48;;;;;;;3.53;2.90;;;36.20;43.10;;;;;;6113045;23;20434;-75
2022/08/21 16:26:17;;;;;;;3.43;3.13;;;36.30;43.10;;;;;;6110684;23;20465;-76
2022/08/21 16:28:45;;;;;;;3.17;2.90;;;36.40;43.80;;;;;;6104712;23;20867;-78
2022/08/21 16:31:13;;;;;;;3.20;2.87;;;36.60;43.40;;;;;;6102288;23;20436;-69
2022/08/21 16:33:43;;;;;;;3.70;3.00;;;36.50;42.80;;;;;;6112115;23;20836;-68
2022/08/21 16:36:11;;;;;;;3.17;2.63;;;36.10;43.60;;;;;;6108455;23;20465;-69
2022/08/21 16:38:41;;;;;;;4.20;2.70;;;35.70;44.30;;;;;;6116382;23;20452;-69
2022/08/21 16:41:11;;;;;;;3.33;3.03;;;35.20;44.10;;;;;;6117654;23;20873;-68
2022/08/21 16:43:40;;;;;;;2.83;2.50;;;34.70;44.70;;;;;;6107583;23;20462;-69
2022/08/21 16:46:08;;;;;;;4.73;3.10;;;34.20;45.70;;;;;;6102637;23;20449;-69
2022/08/21 16:48:35;;;;;;;3.30;2.80;;;33.70;45.60;;;;;;6100829;23;20469;-69
2022/08/21 16:51:02;;;;;;;3.73;3.10;;;33.20;45.60;;;;;;6106687;23;20465;-69
2022/08/21 16:53:29;;;;;;;5.10;2.80;;;32.50;46.40;;;;;;6103316;23;20431;-68
2022/08/21 16:55:58;;;;;;;3.10;2.80;;;31.90;47.80;;;;;;6098777;23;20463;-69
2022/08/21 16:58:29;;;;;;;3.20;2.90;;;31.40;49.70;;;;;;6097332;23;21004;-68
2022/08/21 17:00:57;;;;;;;2.63;2.43;;;30.90;49.40;;;;;;6095987;23;20434;-67
2022/08/21 17:03:30;;;;;;;4.33;3.07;;;30.50;49.90;;;;;;6098990;23;20474;-77
2022/08/21 17:05:57;;;;;;;3.23;2.97;;;30.10;50.00;;;;;;6097245;23;20457;-75
2022/08/21 17:08:24;;;;;;;4.00;3.20;;;29.80;51.00;;;;;;6109472;23;20965;-69
2022/08/21 17:10:51;;;;;;;2.80;2.50;;;29.50;51.40;;;;;;6092105;23;20434;-69
2022/08/21 17:13:20;;;;;;;3.10;2.80;;;29.30;51.50;;;;;;6098049;23;20503;-70
2022/08/21 17:15:47;;;;;;;3.60;3.30;;;29.10;51.90;;;;;;6098249;23;20458;-69
2022/08/21 17:18:18;;;;;;;3.70;3.13;;;28.90;52.60;;;;;;6096392;23;20489;-69
2022/08/21 17:20:46;;;;;;;2.90;2.70;;;28.70;52.50;;;;;;6096528;23;20457;-70
2022/08/21 17:23:14;;;;;;;3.13;2.83;;;28.60;53.30;;;;;;6102785;23;20442;-69
2022/08/21 17:25:44;;;;;;;3.20;2.90;;;28.50;53.20;;;;;;6096240;23;21282;-69
2022/08/21 17:28:15;;;;;;;3.67;3.20;;;28.40;53.20;;;;;;6100545;23;20478;-69
2022/08/21 17:30:45;;;;;;;3.93;3.40;;;28.30;53.50;;;;;;6113070;23;20438;-69
2022/08/21 17:33:13;;;;;;;4.00;2.90;;;28.20;54.10;;;;;;6106973;23;20463;-69
2022/08/21 17:35:40;;;;;;;3.20;2.90;;;28.00;54.20;;;;;;6114791;23;20447;-69
2022/08/21 17:38:08;;;;;;;3.47;2.43;;;27.90;54.00;;;;;;6120160;23;20417;-69
2022/08/21 17:40:36;;;;;;;5.83;3.33;;;27.80;54.20;;;;;;6117786;23;20445;-69
2022/08/21 17:43:03;;;;;;;3.57;3.07;;;27.70;54.40;;;;;;6109727;23;20484;-69
2022/08/21 17:45:30;;;;;;;3.80;3.47;;;27.50;54.60;;;;;;6112766;23;20887;-69
2022/08/21 17:47:59;;;;;;;3.87;2.93;;;27.40;54.40;;;;;;6106934;23;20985;-69
2022/08/21 17:50:26;;;;;;;3.00;2.70;;;27.30;54.40;;;;;;6105899;23;20434;-69
2022/08/21 17:52:53;;;;;;;3.90;3.50;;;27.10;54.20;;;;;;6095916;23;20545;-69
2022/08/21 17:55:21;;;;;;;3.40;3.10;;;27.00;54.60;;;;;;6094945;23;20488;-69
2022/08/21 17:57:50;;;;;;;3.50;3.20;;;26.90;54.80;;;;;;6094267;23;20484;-70
2022/08/21 18:00:19;;;;;;;4.33;3.10;;;26.80;55.00;;;;;;6099718;23;20770;-69
2022/08/21 18:02:49;;;;;;;4.63;3.57;;;26.70;55.20;;;;;;6102674;23;20481;-69
2022/08/21 18:05:19;;;;;;;3.57;3.27;;;26.60;55.80;;;;;;6118288;23;20422;-69
2022/08/21 18:07:46;;;;;;;3.27;2.97;;;26.40;56.30;;;;;;6115927;23;20437;-69
2022/08/21 18:10:13;;;;;;;3.27;2.97;;;26.30;56.70;;;;;;6111387;23;20495;-69
2022/08/21 18:12:42;;;;;;;3.17;2.90;;;26.20;56.40;;;;;;6099038;23;20449;-69
2022/08/21 18:15:12;;;;;;;4.10;3.33;;;26.10;56.50;;;;;;6119545;23;20462;-69
2022/08/21 18:17:42;;;;;;;3.17;2.87;;;26.00;56.80;;;;;;6114862;23;20816;-69
2022/08/21 18:20:10;;;;;;;4.43;3.47;;;25.90;57.10;;;;;;6118326;23;20577;-69
2022/08/21 18:22:39;;;;;;;5.17;3.83;;;25.70;56.40;;;;;;6106262;23;20463;-69
2022/08/21 18:25:06;;;;;;;3.93;3.53;;;25.70;56.60;;;;;;6120207;23;20437;-69
2022/08/21 18:27:34;;;;;;;4.30;4.00;;;25.50;57.10;;;;;;6098158;23;20497;-69
2022/08/21 18:30:01;;;;;;;5.00;4.60;;;25.40;57.40;;;;;;6091956;23;20822;-69
2022/08/21 18:32:29;;;;;;;7.00;5.10;;;25.30;57.50;;;;;;6102570;23;20944;-69
2022/08/21 18:34:58;;;;;;;5.40;4.90;;;25.20;58.50;;;;;;6108160;23;20445;-69
2022/08/21 18:37:25;;;;;;;5.90;4.97;;;25.20;58.90;;;;;;6114360;23;20461;-69
2022/08/21 18:39:53;;;;;;;5.63;5.03;;;25.10;59.30;;;;;;6103491;23;20448;-76
2022/08/21 18:42:20;;;;;;;4.63;3.80;;;25.00;60.00;;;;;;6106258;23;20438;-68
2022/08/21 18:44:52;;;;;;;4.30;3.90;;;24.90;60.20;;;;;;6097109;23;20869;-70
2022/08/21 18:47:22;;;;;;;4.63;4.23;;;24.80;60.80;;;;;;6092477;23;21140;-70
2022/08/21 18:49:49;;;;;;;6.97;4.27;;;24.70;62.00;;;;;;6095611;23;20967;-67
2022/08/21 18:52:17;;;;;;;5.20;4.27;;;24.60;61.20;;;;;;6104129;23;20450;-67
2022/08/21 18:54:44;;;;;;;4.20;3.80;;;24.50;62.20;;;;;;6102923;23;21104;-67
2022/08/21 18:57:12;;;;;;;4.20;3.73;;;24.50;61.70;;;;;;6105169;23;20435;-68
2022/08/21 18:59:40;;;;;;;4.03;3.17;;;24.40;62.20;;;;;;6101774;23;20479;-67
2022/08/21 19:02:08;;;;;;;4.47;4.03;;;24.40;62.60;;;;;;6111365;23;20995;-67
2022/08/21 19:04:35;;;;;;;4.60;3.57;;;24.30;63.00;;;;;;6103096;23;20443;-67
2022/08/21 19:07:02;;;;;;;3.50;3.17;;;24.30;62.10;;;;;;6111531;23;20426;-67
2022/08/21 19:09:30;;;;;;;3.87;3.10;;;24.20;60.70;;;;;;6098510;23;20527;-67
2022/08/21 19:11:58;;;;;;;3.80;3.50;;;24.20;61.70;;;;;;6100146;23;20446;-67
2022/08/21 19:14:28;;;;;;;5.70;3.80;;;24.10;61.30;;;;;;6109981;23;20461;-67
2022/08/21 19:16:55;;;;;;;4.47;3.47;;;24.30;61.70;;;;;;6099707;23;20434;-67
2022/08/21 19:19:22;;;;;;;4.93;3.57;;;24.00;61.40;;;;;;6096748;23;20457;-67
2022/08/21 19:21:49;;;;;;;4.50;4.10;;;24.00;61.30;;;;;;6097227;23;20920;-67
2022/08/21 19:24:16;;;;;;;5.10;3.47;;;23.90;61.50;;;;;;6108494;23;20940;-67
2022/08/21 19:26:44;;;;;;;3.70;3.40;;;23.90;61.70;;;;;;6099792;23;20464;-68
2022/08/21 19:29:16;;;;;;;4.27;3.87;;;23.80;61.70;;;;;;6097982;23;20477;-67
2022/08/21 19:31:45;;;;;;;5.10;4.00;;;23.80;60.80;;;;;;6097030;23;20441;-67
2022/08/21 19:34:25;;;;;;;4.17;3.77;;;23.70;61.90;;;;;;6111888;23;20454;-68
2022/08/21 19:36:55;;;;;;;4.53;3.77;;;23.70;61.30;;;;;;6103137;23;20438;-66
2022/08/21 19:39:23;;;;;;;4.73;3.80;;;23.60;61.60;;;;;;6099828;23;20564;-68
2022/08/21 19:41:54;;;;;;;4.07;3.73;;;23.60;61.90;;;;;;6101388;23;21013;-67
2022/08/21 19:44:24;;;;;;;3.90;3.30;;;23.50;62.50;;;;;;6097947;23;20438;-67
2022/08/21 19:46:56;;;;;;;4.03;3.63;;;23.50;63.70;;;;;;6094208;23;20438;-67
2022/08/21 19:49:27;;;;;;;4.07;3.67;;;23.40;63.40;;;;;;6097672;23;20473;-66
2022/08/21 19:51:54;;;;;;;3.77;3.37;;;23.40;64.30;;;;;;6117678;23;20433;-67
2022/08/21 19:54:24;;;;;;;3.60;3.30;;;23.30;64.00;;;;;;6095952;23;20442;-67
2022/08/21 19:56:54;;;;;;;4.77;3.70;;;23.40;64.00;;;;;;6102833;23;20504;-68
2022/08/21 19:59:21;;;;;;;4.40;4.00;;;23.20;63.60;;;;;;6110054;23;21181;-67
2022/08/21 20:01:49;;;;;;;4.40;4.00;;;23.20;64.30;;;;;;6107128;23;21085;-68
2022/08/21 20:04:17;;;;;;;4.17;3.77;;;23.20;63.80;;;;;;6099111;23;20474;-67
2022/08/21 20:06:45;;;;;;;4.43;4.03;;;23.10;64.10;;;;;;6090566;23;20481;-69
2022/08/21 20:09:12;;;;;;;4.33;3.93;;;23.00;64.20;;;;;;6097980;23;20462;-67
2022/08/21 20:11:43;;;;;;;4.30;3.90;;;23.00;64.80;;;;;;6098818;23;20466;-68
2022/08/21 20:14:13;;;;;;;4.03;3.63;;;23.00;65.40;;;;;;6101262;23;20453;-68
2022/08/21 20:16:41;;;;;;;5.83;4.23;;;22.90;66.20;;;;;;6109449;23;20467;-68
2022/08/21 20:19:09;;;;;;;4.80;3.67;;;22.90;65.40;;;;;;6099822;23;20469;-67
2022/08/21 20:21:39;;;;;;;7.00;4.30;;;22.90;66.00;;;;;;6104936;23;21194;-67
2022/08/21 20:24:07;;;;;;;4.17;3.73;;;22.80;67.10;;;;;;6102184;23;20507;-66
2022/08/21 20:26:35;;;;;;;4.00;3.60;;;22.70;67.60;;;;;;6095625;23;20453;-67
2022/08/21 20:29:04;;;;;;;3.67;3.30;;;22.90;67.10;;;;;;6109048;23;20454;-66
2022/08/21 20:31:31;;;;;;;3.97;3.60;;;22.80;67.10;;;;;;6103168;23;20475;-67
2022/08/21 20:33:58;;;;;;;6.53;5.73;;;22.80;67.60;;;;;;6114794;23;20479;-67
2022/08/21 20:36:25;;;;;;;5.20;4.70;;;22.60;66.70;;;;;;6102841;23;20572;-66
2022/08/21 20:38:54;;;;;;;4.90;4.20;;;22.60;66.10;;;;;;6105169;23;20951;-67
2022/08/21 20:41:23;;;;;;;3.50;3.20;;;22.60;65.20;;;;;;6104228;23;20449;-67
2022/08/21 20:43:51;;;;;;;4.23;3.80;;;22.50;64.70;;;;;;6101403;23;20476;-67
2022/08/21 20:46:22;;;;;;;4.20;3.37;;;22.40;66.80;;;;;;6102775;23;20442;-66
2022/08/21 20:48:50;;;;;;;3.90;3.27;;;22.30;68.50;;;;;;6108334;23;20503;-67
2022/08/21 20:51:23;;;;;;;3.83;3.50;;;22.10;67.00;;;;;;6092986;23;20840;-66
2022/08/21 20:54:01;;;;;;;4.50;3.87;;;21.80;67.60;;;;;;6103501;23;20966;-67
2022/08/21 20:56:37;;;;;;;4.00;3.20;;;21.70;68.50;;;;;;6094621;23;20524;-66
2022/08/21 20:59:15;;;;;;;4.07;3.67;;;21.60;68.90;;;;;;6093274;23;20430;-67
2022/08/21 21:01:45;;;;;;;4.77;3.30;;;21.50;69.00;;;;;;6114975;23;20440;-66
2022/08/21 21:04:25;;;;;;;5.20;3.40;;;21.50;69.50;;;;;;6116534;23;20464;-67
2022/08/21 21:06:53;;;;;;;3.90;3.50;;;21.50;69.70;;;;;;6092043;23;20437;-67
2022/08/21 21:09:35;;;;;;;4.30;3.37;;;21.50;69.10;;;;;;6098081;23;20494;-66
2022/08/21 21:12:07;;;;;;;3.27;2.97;;;21.50;68.70;;;;;;6106203;23;21138;-67
2022/08/21 21:14:39;;;;;;;3.57;3.27;;;21.50;68.80;;;;;;6101169;23;20440;-67